To NAV CANADA Home Page Login to a new session Search on AWWS site Feedback and Comments Disclaimer Vers la page française équivalente Tips FAQ What's new on the site To the Forecasts and Observations / NOTAM section To "File a Flight Plan" website Publications and other links Update of the User's profile FIC Telephone Numbers My Weather Data Folder Route Weather Data Regional Weather Data Local Weather Data To the Forecasts and Observations / NOTAM section
Request Generated 02/27/2017 at 09:26:37 UTC . Weather information available at that time is displayed.


Go to a specific product

Save this request - Inactive

METAR/TAF

OTTAWA/GATINEAU/QC    

LWIS CYND 270900Z AUTO 24015G22KT 01/M05 A2994=
LWIS CYND 270800Z AUTO 23012G18KT 01/M05 A2994=
LWIS CYND 270700Z AUTO 23011KT 00/M05 A2994=

*** REMARK        : Forecast period has ended; this was the last TAF issued
*** REMARQUE : La période de prévision est échue; ceci était le dernier TAF qui a été émis
TAF CYND 262338Z 2700/2702 VRB03KT P6SM FEW040 SCT070
BECMG 2700/2702 23010G20KT
RMK NXT FCST WILL BE ISSUED AT 271345Z=

OTTAWA/MACDONALD-CARTIER INTL/ON    

METAR CYOW 270900Z 21014G22KT 15SM OVC090 01/M05 A2995 RMK AC8
SLP149=
METAR CYOW 270800Z 22018G29KT 15SM FEW037 BKN095 BKN120 01/M05 A2995
RMK SC1AC5AC1 SLP147=
METAR CYOW 270700Z 22016G25KT 15SM FEW037 SCT070 BKN110 00/M05 A2994
RMK SC2AC2AC3 SLP146=

TAF CYOW 270838Z 2709/2806 23017G27KT P6SM SCT070 TEMPO 2709/2712
P6SM -SHSN BKN070
FM271200 23015G25KT P6SM -SHSN BKN060 TEMPO 2712/2715 4SM -SHSN
BKN030 OVC060
FM271500 27015G25KT P6SM BKN030
FM271800 27010G20KT P6SM FEW040
BECMG 2721/2723 26008KT
BECMG 2802/2804 VRB03KT
RMK NXT FCST BY 271200Z=


GRAPHICAL FA CLOUDS & WEATHER FORECASTS
To the Product Selector
Graphical FA gfacn33      

GRAPHICAL FA ICING, TURBULENCE & FREEZING LEVEL FORECASTS
To the Product Selector
Graphical FA gfacn33      

FDTEXT Low Level FD. Temperatures are not forecast for the 3,000-foot level.
To the Product Selector
STN YOW - OTTAWA. ONT for use 3000 6000 9000 12000 18000
FDCN01 CWAO FCST BASED ON 270000 DATA VALID 270600 05-09 2454 2749-11 2645-18 2748-25 2767-36
FDCN02 CWAO FCST BASED ON 270000 DATA VALID 271200 09-18 2744 2751-11 2758-17 2762-21 2879-32
FDCN03 CWAO FCST BASED ON 270000 DATA VALID 280000 18-05 2520 2627-10 2838-14 2752-17 2767-27



Your time UTC time
Weather data provided by Environment Canada and NAV CANADA